Time;durP1;ratioP1;P1;durP2;ratioP2;P2;SDS_P1;SDS_P2;PMS_P1;PMS_P2;Temp;Humidity;BMP_temperature;BMP_pressure;BME280_temperature;BME280_humidity;BME280_pressure;Samples;Min_cycle;Max_cycle;Signal;HPM_P1;HPM_P2
2023/03/08 05:00:40;;;;;;;27.65;18.52;;;;;;;6.81;89.65;99343.91;5598978;31;310560;-54
2023/03/08 05:03:44;;;;;;;32.70;21.02;;;;;;;6.81;89.65;99343.91;5582706;32;33204;-55
2023/03/08 05:06:47;;;;;;;29.23;19.87;;;;;;;6.73;100.00;99346.41;5583338;31;34684;-55
2023/03/08 05:09:50;;;;;;;28.85;18.67;;;;;;;6.64;99.30;99338.22;5583688;31;33381;-55
2023/03/08 05:12:53;;;;;;;29.95;20.17;;;;;;;6.73;100.00;99343.75;5583751;31;33691;-55
2023/03/08 05:15:55;;;;;;;27.20;19.17;;;;;;;6.80;100.00;99345.00;5573093;31;33556;-55
2023/03/08 05:18:58;;;;;;;25.95;19.17;;;;;;;6.98;100.00;99343.50;5564030;32;33460;-55
2023/03/08 05:22:04;;;;;;;32.05;20.85;;;;;;;6.94;98.75;99345.13;5564068;32;33451;-55
2023/03/08 05:25:06;;;;;;;28.00;19.92;;;;;;;6.76;100.00;99343.97;5563794;32;33328;-55
2023/03/08 05:28:14;;;;;;;30.52;20.15;;;;;;;6.66;89.61;99348.59;5564100;32;33516;-55
2023/03/08 05:31:20;;;;;;;31.25;19.95;;;;;;;6.66;86.55;99351.25;5563770;32;33444;-55
2023/03/08 05:34:22;;;;;;;29.98;22.10;;;;;;;6.45;86.68;99351.41;5563607;32;34319;-55
2023/03/08 05:37:24;;;;;;;28.45;20.95;;;;;;;6.60;100.00;99361.16;5563895;32;33586;-55
2023/03/08 05:40:29;;;;;;;30.95;18.80;;;;;;;6.47;90.86;99370.56;5563801;32;33532;-55
2023/03/08 05:43:32;;;;;;;28.30;19.73;;;;;;;6.35;91.50;99381.53;5563838;32;33466;-55
2023/03/08 05:46:37;;;;;;;29.77;21.40;;;;;;;6.39;98.01;99396.97;5563548;32;33377;-55
2023/03/08 05:49:39;;;;;;;33.97;20.23;;;;;;;6.50;100.00;99395.84;5563914;32;34477;-55
2023/03/08 05:52:42;;;;;;;33.28;20.33;;;;;;;6.53;93.61;99409.41;5563342;32;33570;-55
2023/03/08 05:55:45;;;;;;;30.10;20.62;;;;;;;6.75;96.80;99405.50;5563796;32;33109;-55
2023/03/08 05:58:48;;;;;;;30.60;20.58;;;;;;;6.63;85.95;99407.75;5562813;32;34373;-55
2023/03/08 06:01:51;;;;;;;30.40;20.58;;;;;;;6.67;89.25;99406.09;5563480;32;33807;-55
2023/03/08 06:04:54;;;;;;;29.67;21.42;;;;;;;6.80;83.37;99418.78;5563711;32;33444;-55
2023/03/08 06:07:57;;;;;;;30.23;21.00;;;;;;;6.90;83.31;99420.59;5571989;31;34461;-57
2023/03/08 06:10:59;;;;;;;30.52;21.75;;;;;;;7.24;98.95;99429.34;5570917;32;34454;-55
2023/03/08 06:14:01;;;;;;;30.83;20.83;;;;;;;7.20;82.69;99430.97;5569286;32;33287;-55
2023/03/08 06:17:04;;;;;;;34.17;22.15;;;;;;;7.29;86.97;99425.84;5569704;31;33407;-55
2023/03/08 06:20:08;;;;;;;35.50;22.05;;;;;;;7.29;89.27;99426.62;5569380;32;34599;-55
2023/03/08 06:23:13;;;;;;;32.92;20.62;;;;;;;7.38;100.00;99442.78;5569809;31;34058;-55
2023/03/08 06:26:15;;;;;;;34.75;21.73;;;;;;;7.42;88.04;99441.19;5569736;32;33621;-55
2023/03/08 06:29:18;;;;;;;31.27;19.90;;;;;;;7.41;85.12;99441.44;5569292;31;33364;-55
2023/03/08 06:32:21;;;;;;;29.15;20.05;;;;;;;7.50;100.00;99451.22;5568975;31;33430;-55
2023/03/08 06:35:24;;;;;;;40.05;20.27;;;;;;;7.69;84.21;99448.62;5568718;31;33265;-55
2023/03/08 06:38:30;;;;;;;29.37;18.98;;;;;;;7.73;87.16;99454.19;5569220;31;34598;-55
2023/03/08 06:41:35;;;;;;;30.08;18.75;;;;;;;7.81;78.37;99458.09;5569173;32;33682;-55
2023/03/08 06:44:37;;;;;;;26.50;19.08;;;;;;;7.94;86.44;99452.84;5568657;31;34512;-55
2023/03/08 06:47:41;;;;;;;31.20;20.40;;;;;;;7.94;76.14;99458.19;5569027;31;33341;-55
2023/03/08 06:50:44;;;;;;;25.52;17.42;;;;;;;8.14;80.99;99464.38;5567605;32;33559;-55
2023/03/08 06:53:50;;;;;;;24.90;16.98;;;;;;;8.00;80.52;99467.75;5569105;31;34289;-55
2023/03/08 06:56:56;;;;;;;25.65;16.60;;;;;;;7.95;74.00;99462.47;5567867;32;34258;-55
2023/03/08 06:59:59;;;;;;;22.58;15.05;;;;;;;8.22;76.37;99474.44;5569000;32;33409;-55
2023/03/08 07:03:01;;;;;;;31.48;16.40;;;;;;;8.35;85.15;99472.94;5568754;32;33650;-55
2023/03/08 07:06:06;;;;;;;22.65;15.90;;;;;;;8.33;72.64;99477.75;5563962;32;34423;-55
2023/03/08 07:09:09;;;;;;;27.62;16.02;;;;;;;8.47;81.16;99482.13;5552884;32;33859;-55
2023/03/08 07:12:11;;;;;;;23.42;15.60;;;;;;;8.53;84.13;99487.41;5560227;32;34396;-56
2023/03/08 07:15:17;;;;;;;22.87;15.20;;;;;;;8.42;93.22;99486.75;5559290;32;33899;-55
2023/03/08 07:18:20;;;;;;;24.98;14.63;;;;;;;8.52;90.24;99493.84;5566543;32;33234;-55
2023/03/08 07:21:23;;;;;;;21.87;13.98;;;;;;;8.39;70.05;99500.69;5552504;32;33317;-55
2023/03/08 07:24:25;;;;;;;23.05;14.38;;;;;;;8.63;76.17;99500.63;5563703;32;33716;-55
2023/03/08 07:27:28;;;;;;;21.65;13.95;;;;;;;8.66;67.35;99506.19;5555026;32;33678;-55
2023/03/08 07:30:30;;;;;;;21.02;13.70;;;;;;;8.65;69.59;99511.84;5562188;32;33604;-55
2023/03/08 07:33:34;;;;;;;27.92;14.60;;;;;;;8.74;65.35;99517.31;5561254;32;34442;-56
2023/03/08 07:36:38;;;;;;;17.92;12.10;;;;;;;8.91;75.44;99515.72;5549312;32;33206;-55
2023/03/08 07:39:43;;;;;;;18.00;12.13;;;;;;;9.21;88.64;99508.34;5549167;32;33619;-55
2023/03/08 07:42:46;;;;;;;20.88;11.90;;;;;;;9.15;73.38;99517.50;5553553;32;33320;-55
2023/03/08 07:45:49;;;;;;;21.23;10.27;;;;;;;9.17;58.78;99523.34;5548518;31;34584;-55
2023/03/08 07:48:52;;;;;;;16.58;9.13;;;;;;;9.02;53.94;99519.03;5547434;32;33154;-55
2023/03/08 07:51:56;;;;;;;15.93;8.68;;;;;;;8.96;50.37;99528.22;5550601;32;33246;-56
2023/03/08 07:55:01;;;;;;;18.67;9.95;;;;;;;9.08;53.39;99541.94;5554629;32;33787;-55
2023/03/08 07:58:03;;;;;;;18.02;11.95;;;;;;;9.35;69.82;99535.13;5551014;32;33651;-56
2023/03/08 08:01:10;;;;;;;15.40;11.15;;;;;;;9.43;57.40;99541.66;5559935;32;33329;-55
2023/03/08 08:04:13;;;;;;;18.12;10.80;;;;;;;9.69;57.38;99548.19;5556381;32;34236;-55
2023/03/08 08:07:15;;;;;;;18.77;9.90;;;;;;;9.58;63.76;99546.78;5555180;32;33590;-55
2023/03/08 08:10:18;;;;;;;15.63;9.88;;;;;;;9.51;53.53;99562.41;5560457;32;34297;-55
2023/03/08 08:13:20;;;;;;;15.63;10.27;;;;;;;9.47;53.48;99561.41;5554506;32;34203;-56
2023/03/08 08:16:24;;;;;;;16.58;10.77;;;;;;;9.55;59.79;99563.41;5554245;32;34403;-55
2023/03/08 08:19:26;;;;;;;16.37;11.07;;;;;;;9.57;68.66;99555.88;5558548;32;32641;-55
2023/03/08 08:22:29;;;;;;;16.50;9.70;;;;;;;9.56;55.27;99549.72;5554024;32;33579;-55
2023/03/08 08:25:32;;;;;;;16.80;9.18;;;;;;;9.62;56.57;99550.44;5563341;32;33737;-55
2023/03/08 08:28:36;;;;;;;14.70;9.38;;;;;;;9.57;48.68;99555.88;5566664;32;33578;-55
2023/03/08 08:31:38;;;;;;;14.60;10.00;;;;;;;9.53;48.32;99550.31;5565702;32;33605;-55
2023/03/08 08:34:40;;;;;;;14.50;9.07;;;;;;;9.58;49.10;99555.59;5564540;32;33168;-55
2023/03/08 08:37:43;;;;;;;14.13;8.38;;;;;;;9.56;50.39;99554.28;5567158;32;33219;-55
2023/03/08 08:40:45;;;;;;;16.45;9.70;;;;;;;9.73;50.58;99551.06;5563919;32;34323;-55
2023/03/08 08:43:48;;;;;;;18.30;9.27;;;;;;;9.83;47.64;99550.87;5566243;32;33810;-55
2023/03/08 08:46:51;;;;;;;14.60;9.20;;;;;;;9.83;46.96;99546.34;5565819;32;32208;-55
2023/03/08 08:49:53;;;;;;;12.73;8.45;;;;;;;9.74;49.00;99550.00;5557892;32;33643;-55
2023/03/08 08:52:56;;;;;;;13.25;8.48;;;;;;;9.71;46.13;99545.22;5567230;32;34044;-55
2023/03/08 08:55:58;;;;;;;12.90;8.82;;;;;;;9.85;47.10;99538.00;5567209;32;33702;-55
2023/03/08 08:59:01;;;;;;;13.93;9.18;;;;;;;9.96;45.78;99541.28;5567389;32;34313;-55
2023/03/08 09:02:04;;;;;;;14.50;8.57;;;;;;;9.85;47.52;99538.00;5565631;32;33767;-55
2023/03/08 09:05:07;;;;;;;15.32;9.50;;;;;;;9.86;46.07;99534.22;5564159;32;34453;-55
2023/03/08 09:08:10;;;;;;;16.27;10.65;;;;;;;10.02;46.93;99532.84;5566835;32;33672;-55
2023/03/08 09:11:13;;;;;;;15.10;10.05;;;;;;;9.99;47.18;99528.09;5563818;32;33733;-55
2023/03/08 09:14:15;;;;;;;16.45;9.70;;;;;;;10.33;56.18;99526.94;5563783;32;33600;-55
2023/03/08 09:17:18;;;;;;;15.80;9.95;;;;;;;10.26;47.51;99529.22;5566639;32;34438;-55
2023/03/08 09:20:21;;;;;;;14.90;9.40;;;;;;;10.39;46.95;99522.25;5566129;32;33700;-55
2023/03/08 09:23:25;;;;;;;13.75;10.63;;;;;;;10.42;59.36;99519.78;5566838;32;33727;-55
2023/03/08 09:26:30;;;;;;;14.70;9.43;;;;;;;10.84;64.27;99528.53;5566349;32;33573;-55
2023/03/08 09:29:33;;;;;;;11.93;9.00;;;;;;;11.09;51.64;99529.84;5565606;32;33564;-55
2023/03/08 09:32:36;;;;;;;16.08;9.77;;;;;;;11.16;52.68;99524.03;5566033;32;32158;-55
2023/03/08 09:35:39;;;;;;;18.95;14.38;;;;;;;10.98;47.55;99515.88;5565236;32;34274;-55
2023/03/08 09:38:41;;;;;;;24.95;15.57;;;;;;;11.10;67.08;99518.03;5566831;32;33978;-55
2023/03/08 09:41:45;;;;;;;26.25;17.75;;;;;;;10.90;56.59;99519.28;5565340;32;33771;-55
2023/03/08 09:45:00;;;;;;;26.50;18.10;;;;;;;11.00;59.15;99513.69;5566433;32;34553;-55
2023/03/08 09:48:16;;;;;;;31.85;17.70;;;;;;;11.20;63.03;99514.31;5570210;32;33594;-55
2023/03/08 09:51:22;;;;;;;21.67;15.10;;;;;;;11.12;57.90;99523.06;5559171;32;33790;-56
2023/03/08 09:54:26;;;;;;;21.33;14.50;;;;;;;11.24;58.30;99518.75;5564995;32;34355;-55
2023/03/08 09:57:39;;;;;;;19.23;14.18;;;;;;;11.33;66.34;99516.13;5567698;32;34406;-55
2023/03/08 10:00:43;;;;;;;22.40;14.80;;;;;;;11.23;54.04;99516.38;5566721;32;34353;-55
2023/03/08 10:04:03;;;;;;;19.50;13.62;;;;;;;11.13;56.42;99513.94;5565197;32;32412;-55
2023/03/08 10:07:11;;;;;;;17.70;12.65;;;;;;;11.29;64.12;99513.28;5567497;32;34066;-55
2023/03/08 10:11:11;;;;;;;19.80;13.20;;;;;;;11.46;68.63;99511.81;5566548;32;33735;-55
2023/03/08 10:14:26;;;;;;;26.58;13.75;;;;;;;11.23;51.95;99502.97;5492339;32;34373;-55
2023/03/08 10:17:47;;;;;;;18.60;12.75;;;;;;;11.16;53.26;99514.13;5562363;32;34498;-55
2023/03/08 10:20:50;;;;;;;23.35;13.50;;;;;;;11.31;63.89;99515.63;5566748;32;34464;-55
2023/03/08 10:24:25;;;;;;;17.50;12.73;;;;;;;11.70;67.69;99506.09;5563386;32;33680;-55
2023/03/08 10:27:32;;;;;;;17.25;12.20;;;;;;;11.58;52.31;99493.22;5567764;32;33681;-55
2023/03/08 10:30:40;;;;;;;20.70;11.90;;;;;;;11.44;60.53;99503.25;5564352;32;33639;-55
2023/03/08 10:33:44;;;;;;;27.25;11.88;;;;;;;11.31;58.16;99504.91;5564643;32;34400;-55
2023/03/08 10:36:47;;;;;;;18.73;12.02;;;;;;;11.34;51.55;99506.97;5564602;32;33713;-56
2023/03/08 10:39:53;;;;;;;22.40;12.20;;;;;;;11.37;49.11;99510.94;5568309;32;33665;-55
2023/03/08 10:43:04;;;;;;;17.67;11.32;;;;;;;11.31;46.96;99515.63;5567598;32;34022;-55
2023/03/08 10:46:17;;;;;;;15.40;10.93;;;;;;;11.14;48.28;99513.63;5558556;32;33656;-55
2023/03/08 10:49:23;;;;;;;19.62;11.82;;;;;;;11.07;52.27;99505.22;5561805;32;33848;-55
2023/03/08 10:52:28;;;;;;;15.80;10.95;;;;;;;11.27;47.27;99510.09;5568343;32;34520;-55
2023/03/08 10:55:40;;;;;;;17.25;11.18;;;;;;;11.35;47.06;99500.50;5566535;32;34313;-55
2023/03/08 10:58:43;;;;;;;15.07;10.98;;;;;;;11.52;47.18;99494.44;5563354;32;34397;-55
2023/03/08 11:01:51;;;;;;;16.30;10.50;;;;;;;11.62;47.27;99470.03;5564715;32;34520;-55
2023/03/08 11:04:56;;;;;;;18.52;11.32;;;;;;;11.78;49.15;99470.41;5559500;32;34250;-55
2023/03/08 11:07:59;;;;;;;17.25;10.52;;;;;;;11.69;46.64;99473.06;5567681;32;33150;-55
2023/03/08 11:11:07;;;;;;;16.37;10.75;;;;;;;11.75;47.12;99469.16;5564668;32;33372;-55
2023/03/08 11:14:10;;;;;;;14.82;10.07;;;;;;;11.93;48.63;99471.94;5567476;32;34307;-55
2023/03/08 11:17:19;;;;;;;15.85;11.12;;;;;;;11.95;56.86;99467.03;5566056;32;35199;-55
2023/03/08 11:20:30;;;;;;;16.50;10.48;;;;;;;12.13;56.65;99459.81;5569266;32;33660;-55
2023/03/08 11:23:37;;;;;;;16.67;10.43;;;;;;;11.90;46.92;99461.81;5563602;32;34109;-55
2023/03/08 11:27:19;;;;;;;14.30;10.80;;;;;;;11.88;62.05;99461.31;5566206;32;33617;-55
2023/03/08 11:30:54;;;;;;;16.05;10.68;;;;;;;12.02;48.26;99456.62;5567130;32;33645;-55
2023/03/08 11:34:02;;;;;;;;;;;;;;;11.80;45.42;99457.47;5564050;32;34413;-55
2023/03/08 11:37:17;;;;;;;14.68;10.10;;;;;;;11.98;57.01;99451.06;5567336;32;34637;-55
2023/03/08 11:40:32;;;;;;;14.63;10.25;;;;;;;12.08;52.19;99455.38;5564788;32;33923;-55
2023/03/08 11:43:55;;;;;;;13.93;9.05;;;;;;;11.97;48.32;99454.09;5553480;32;33685;-55
2023/03/08 11:47:19;;;;;;;12.70;8.07;;;;;;;12.12;54.33;99450.16;5561259;32;33653;-55
2023/03/08 11:50:24;;;;;;;15.32;7.47;;;;;;;12.03;44.74;99449.38;5565735;32;32987;-55
2023/03/08 11:54:01;;;;;;;14.38;8.38;;;;;;;11.82;45.39;99443.72;5567759;32;33838;-55
2023/03/08 11:57:08;;;;;;;15.10;9.38;;;;;;;11.84;43.51;99439.66;5560309;32;34259;-55
2023/03/08 12:00:29;;;;;;;14.43;9.13;;;;;;;11.74;44.76;99434.53;5563555;32;33444;-55
2023/03/08 12:03:37;;;;;;;13.18;9.48;;;;;;;11.69;45.96;99432.00;5560239;32;34415;-55
2023/03/08 12:06:42;;;;;;;13.90;10.13;;;;;;;11.74;51.00;99429.19;5561909;32;34354;-55
2023/03/08 12:10:00;;;;;;;15.98;9.35;;;;;;;11.77;44.94;99429.34;5566878;32;33675;-55
2023/03/08 12:13:27;;;;;;;12.70;9.18;;;;;;;11.65;44.41;99421.06;5566204;32;33659;-55
2023/03/08 12:16:47;;;;;;;15.07;9.40;;;;;;;11.79;48.08;99423.69;5567503;32;34386;-55
2023/03/08 12:19:50;;;;;;;15.05;9.32;;;;;;;11.84;46.62;99417.38;5563840;32;33667;-55
2023/03/08 12:23:00;;;;;;;12.80;8.68;;;;;;;11.79;46.81;99410.25;5563507;32;33740;-55
2023/03/08 12:26:33;;;;;;;14.45;8.85;;;;;;;11.73;44.81;99422.22;5566278;32;34249;-55
2023/03/08 12:29:42;;;;;;;12.25;7.68;;;;;;;11.72;44.87;99421.44;5553513;32;33768;-55
2023/03/08 12:32:46;;;;;;;11.23;8.10;;;;;;;11.69;50.41;99410.53;5551475;32;33751;-55
2023/03/08 12:36:11;;;;;;;20.05;10.52;;;;;;;11.98;60.36;99410.78;5564326;32;34432;-55
2023/03/08 12:39:34;;;;;;;17.87;10.50;;;;;;;11.97;48.28;99398.47;5561280;32;33687;-55
2023/03/08 12:42:40;;;;;;;18.67;9.88;;;;;;;11.98;46.13;99393.88;5561772;32;33839;-55
2023/03/08 12:45:45;;;;;;;15.40;9.95;;;;;;;12.13;46.13;99387.28;5556366;32;34449;-55
2023/03/08 12:48:50;;;;;;;14.68;10.35;;;;;;;12.24;53.52;99380.47;5551400;32;33454;-55
2023/03/08 12:52:03;;;;;;;15.05;10.00;;;;;;;12.25;45.97;99365.97;5561481;32;33622;-56
2023/03/08 12:55:19;;;;;;;13.23;9.40;;;;;;;12.16;45.21;99357.88;5561212;32;33328;-56
2023/03/08 12:58:21;;;;;;;16.83;9.68;;;;;;;12.22;54.46;99358.53;5560884;32;33781;-55
2023/03/08 13:01:41;;;;;;;14.45;8.93;;;;;;;12.28;48.32;99345.72;5561136;32;33220;-56
2023/03/08 13:04:45;;;;;;;13.98;9.52;;;;;;;12.39;44.97;99341.62;5558001;32;34423;-56
2023/03/08 13:07:57;;;;;;;18.37;8.98;;;;;;;12.26;43.41;99321.06;5555911;32;33358;-55
2023/03/08 13:11:10;;;;;;;16.55;9.40;;;;;;;12.46;48.29;99313.13;5566178;32;33322;-55
2023/03/08 13:14:37;;;;;;;16.35;9.02;;;;;;;12.51;48.28;99303.31;5567220;32;33772;-55
2023/03/08 13:18:04;;;;;;;17.77;9.15;;;;;;;12.54;47.47;99281.97;5566052;32;33820;-55
2023/03/08 13:21:29;;;;;;;14.10;8.20;;;;;;;12.64;44.09;99265.50;5568957;32;34030;-55
2023/03/08 13:24:57;;;;;;;14.03;8.27;;;;;;;12.61;42.97;99262.66;5566216;32;33703;-55
2023/03/08 13:28:10;;;;;;;13.57;8.30;;;;;;;12.79;54.29;99263.41;5558860;32;33797;-55
2023/03/08 13:31:25;;;;;;;11.57;7.30;;;;;;;12.68;48.21;99255.69;5569546;32;33770;-55
2023/03/08 13:34:33;;;;;;;12.30;7.70;;;;;;;12.85;52.85;99254.06;5549796;32;34325;-56
2023/03/08 13:37:36;;;;;;;13.50;8.68;;;;;;;12.65;54.43;99242.88;5564051;32;34366;-56
2023/03/08 13:40:50;;;;;;;13.00;7.28;;;;;;;12.65;44.28;99229.44;5565747;32;34340;-56
2023/03/08 13:43:59;;;;;;;11.45;8.18;;;;;;;12.62;48.46;99232.78;5557454;32;34408;-56
2023/03/08 13:47:21;;;;;;;18.20;7.60;;;;;;;12.62;44.20;99223.94;5567929;32;33607;-55
2023/03/08 13:50:32;;;;;;;12.10;7.32;;;;;;;12.81;45.06;99210.06;5552229;32;33384;-55
2023/03/08 13:53:36;;;;;;;12.63;7.20;;;;;;;12.80;47.27;99213.88;5550295;32;34400;-55
2023/03/08 13:56:39;;;;;;;11.43;7.32;;;;;;;12.68;54.33;99201.09;5550127;32;33744;-56
2023/03/08 13:59:50;;;;;;;15.93;9.73;;;;;;;12.99;62.96;99208.87;5563809;32;33694;-55
2023/03/08 14:02:53;;;;;;;17.42;8.93;;;;;;;12.93;46.04;99208.28;5561621;32;34166;-56
2023/03/08 14:05:56;;;;;;;14.75;8.10;;;;;;;13.00;46.90;99209.69;5567642;32;34446;-55
2023/03/08 14:09:01;;;;;;;12.57;8.30;;;;;;;12.91;47.47;99196.25;5567026;32;33743;-56
2023/03/08 14:12:06;;;;;;;12.57;7.65;;;;;;;13.20;58.53;99200.84;5564530;32;33643;-56
2023/03/08 14:15:17;;;;;;;20.62;8.13;;;;;;;12.99;47.72;99210.78;5561684;31;33603;-55
2023/03/08 14:18:22;;;;;;;13.52;6.78;;;;;;;12.99;53.43;99213.47;5551665;32;34484;-55
2023/03/08 14:21:29;;;;;;;13.05;6.87;;;;;;;13.01;50.82;99203.94;5562751;32;33921;-55
2023/03/08 14:24:34;;;;;;;23.50;15.40;;;;;;;13.02;51.21;99200.16;5553710;32;33716;-55
2023/03/08 14:27:37;;;;;;;14.73;7.30;;;;;;;12.98;53.42;99198.44;5552825;32;34298;-55
2023/03/08 14:30:46;;;;;;;12.63;7.68;;;;;;;13.05;48.79;99191.47;5566953;32;34343;-55
2023/03/08 14:34:00;;;;;;;14.02;7.85;;;;;;;13.07;51.76;99205.34;5567086;32;34294;-55
2023/03/08 14:37:04;;;;;;;18.15;11.25;;;;;;;12.97;50.78;99194.19;5566883;32;33595;-55
2023/03/08 14:40:12;;;;;;;14.30;10.43;;;;;;;12.89;50.78;99203.88;5569390;32;34277;-55
2023/03/08 14:43:20;;;;;;;15.43;7.00;;;;;;;12.85;52.07;99205.66;5569513;32;33852;-55
2023/03/08 14:46:23;;;;;;;13.40;7.20;;;;;;;12.85;55.38;99205.66;5558731;32;33687;-55
2023/03/08 14:49:27;;;;;;;11.52;6.97;;;;;;;12.87;53.87;99219.53;5549895;32;34489;-55
2023/03/08 14:52:33;;;;;;;17.95;7.93;;;;;;;12.94;59.57;99209.06;5566895;32;33891;-55
2023/03/08 14:55:38;;;;;;;13.55;9.95;;;;;;;12.87;55.91;99209.56;5566885;32;34400;-55
2023/03/08 14:58:48;;;;;;;16.40;7.10;;;;;;;12.81;52.12;99210.06;5568721;32;33747;-56
2023/03/08 15:01:50;;;;;;;13.15;7.70;;;;;;;12.97;60.22;99196.88;5569045;32;33586;-56
2023/03/08 15:04:52;;;;;;;15.15;9.23;;;;;;;12.81;51.79;99194.72;5568964;32;33955;-56
2023/03/08 15:07:58;;;;;;;10.65;6.87;;;;;;;12.83;54.15;99195.19;5569397;32;34309;-56
2023/03/08 15:11:00;;;;;;;12.98;7.10;;;;;;;12.80;53.38;99184.31;5568945;32;34254;-56
2023/03/08 15:14:03;;;;;;;15.00;7.28;;;;;;;12.99;57.64;99165.84;5568841;32;34501;-55
2023/03/08 15:17:05;;;;;;;10.30;6.57;;;;;;;12.96;54.96;99171.88;5569267;31;33856;-55
2023/03/08 15:20:10;;;;;;;11.77;7.45;;;;;;;13.06;54.66;99157.25;5568590;32;33652;-56
2023/03/08 15:23:27;;;;;;;11.12;6.85;;;;;;;13.09;62.34;99156.63;5569283;32;34419;-55
2023/03/08 15:26:30;;;;;;;9.20;7.10;;;;;;;13.11;69.87;99160.56;5569429;32;33900;-55
2023/03/08 15:29:35;;;;;;;32.67;7.85;;;;;;;13.12;58.26;99151.38;5560928;32;34333;-55
2023/03/08 15:32:38;;;;;;;15.23;7.55;;;;;;;12.94;55.30;99147.19;5548046;32;33355;-55
2023/03/08 15:35:40;;;;;;;14.25;7.50;;;;;;;12.75;56.38;99150.31;5567224;32;33714;-55
2023/03/08 15:38:43;;;;;;;13.60;6.37;;;;;;;12.78;57.85;99146.19;5568863;32;33764;-56
2023/03/08 15:41:46;;;;;;;12.95;7.93;;;;;;;12.75;67.69;99136.06;5566769;32;33640;-56
2023/03/08 15:44:48;;;;;;;10.93;7.93;;;;;;;12.83;58.82;99132.56;5565403;32;33695;-55
2023/03/08 15:47:55;;;;;;;12.93;8.35;;;;;;;12.83;64.68;99119.09;5569429;32;34308;-55
2023/03/08 15:50:58;;;;;;;13.27;8.13;;;;;;;12.85;60.99;99114.97;5569296;32;34116;-55
2023/03/08 15:54:01;;;;;;;15.50;8.45;;;;;;;12.96;59.50;99106.53;5568326;32;33363;-55
2023/03/08 15:57:03;;;;;;;14.40;8.63;;;;;;;12.93;60.84;99098.00;5568163;32;34404;-55
2023/03/08 16:00:10;;;;;;;17.27;9.05;;;;;;;12.89;58.23;99094.37;5566258;32;32298;-56
2023/03/08 16:03:13;;;;;;;15.18;9.35;;;;;;;12.91;63.87;99102.13;5568971;32;33749;-56
2023/03/08 16:06:16;;;;;;;17.45;9.57;;;;;;;13.06;65.59;99095.38;5568917;32;33638;-55
2023/03/08 16:09:18;;;;;;;15.20;10.13;;;;;;;13.00;60.94;99092.09;5569100;32;34418;-55
2023/03/08 16:12:20;;;;;;;17.95;9.63;;;;;;;12.87;61.48;99085.06;5568675;32;33783;-56
2023/03/08 16:15:23;;;;;;;16.10;9.20;;;;;;;12.86;60.82;99084.28;5568572;32;34313;-55
2023/03/08 16:18:28;;;;;;;16.25;9.32;;;;;;;12.86;61.89;99086.19;5568925;32;33202;-55
2023/03/08 16:21:30;;;;;;;16.27;9.82;;;;;;;12.90;65.67;99087.09;5568704;32;33672;-55
2023/03/08 16:24:32;;;;;;;14.77;9.65;;;;;;;12.83;66.45;99094.91;5568240;32;34255;-55
2023/03/08 16:27:35;;;;;;;16.62;9.23;;;;;;;12.87;63.89;99087.75;5567174;32;34513;-56
2023/03/08 16:30:41;;;;;;;16.27;10.25;;;;;;;12.83;67.77;99087.63;5565584;32;33320;-55
2023/03/08 16:33:44;;;;;;;14.30;10.15;;;;;;;12.78;63.38;99081.63;5565426;32;33812;-55
2023/03/08 16:36:46;;;;;;;16.05;10.00;;;;;;;12.80;63.66;99077.50;5568005;32;33470;-56
2023/03/08 16:39:49;;;;;;;15.77;9.75;;;;;;;12.75;64.39;99066.97;5566932;32;33886;-58
2023/03/08 16:42:51;;;;;;;14.35;9.48;;;;;;;12.72;63.05;99069.53;5558810;32;34354;-59
2023/03/08 16:45:59;;;;;;;21.87;9.10;;;;;;;12.74;64.52;99078.03;5568911;32;33531;-56
2023/03/08 16:49:02;;;;;;;19.12;10.32;;;;;;;12.70;63.53;99078.69;5568648;32;34336;-55
2023/03/08 16:52:04;;;;;;;14.27;9.30;;;;;;;12.62;64.29;99076.84;5568130;32;34419;-55
